Polkton, North Carolina
Current Conditions -  °F | °C
As of 4:35 PM on Thursday 23 Oct 2014 (Local Time) from KAFP Reporting Station
Clear Clear  
Wind Chill: 70°   Ceiling: Unl
Heat Index: 70°   Visibility: 10mi
Dew Point: 38°   Wind: 8mph
Humidity: 31%   Direction: 310°NW
Pressure: 29.97"   Gusts: NA
Location:  35.01°N, 80.2°W
Report Text: KAFP 232035Z AUTO 31007KT 10SM CLR 21/03 A2997 RMK AO2 T02100031
Loading
Personal Weather Stations






























Interactive Weather Map
Tropical Storm Tracking
New forecast layout! Learn more

10-Day Weather Forecast

Advertisements
Track Severe Weather on mobile